createdAt,value
2019-03-24T00:00:48.971Z,10.64
2019-03-24T00:03:22.756Z,10.81
2019-03-24T00:05:54.631Z,10.72
2019-03-24T00:08:26.747Z,10.69
2019-03-24T00:10:58.726Z,10.69
2019-03-24T00:13:30.724Z,10.74
2019-03-24T00:16:02.740Z,10.70
2019-03-24T00:18:34.704Z,10.76
2019-03-24T00:21:06.705Z,10.82
2019-03-24T00:23:39.060Z,10.76
2019-03-24T00:26:13.499Z,10.70
2019-03-24T00:28:45.607Z,10.58
2019-03-24T00:31:19.124Z,10.53
2019-03-24T00:33:51.067Z,10.46
2019-03-24T00:36:22.935Z,10.43
2019-03-24T00:38:54.944Z,10.39
2019-03-24T00:41:27.016Z,10.43
2019-03-24T00:43:59.058Z,10.47
2019-03-24T00:46:30.943Z,10.36
2019-03-24T00:49:03.145Z,10.31
2019-03-24T00:51:35.057Z,10.19
2019-03-24T00:54:07.117Z,10.30
2019-03-24T00:56:39.196Z,10.06
2019-03-24T00:59:11.226Z,9.85
2019-03-24T01:01:43.320Z,9.80
2019-03-24T01:04:15.220Z,9.87
2019-03-24T01:06:47.092Z,9.94
2019-03-24T01:09:20.588Z,9.93
2019-03-24T01:14:25.289Z,10.08
2019-03-24T01:16:57.237Z,10.05
2019-03-24T01:19:29.203Z,10.06
2019-03-24T01:22:01.212Z,10.02
2019-03-24T01:24:33.125Z,9.99
2019-03-24T01:27:05.383Z,9.87
2019-03-24T01:29:37.268Z,9.92
2019-03-24T01:32:09.291Z,9.82
2019-03-24T01:34:41.203Z,9.69
2019-03-24T01:37:13.195Z,9.60
2019-03-24T01:39:45.030Z,9.58
2019-03-24T01:42:17.390Z,9.63
2019-03-24T01:44:49.307Z,9.55
2019-03-24T01:47:21.162Z,9.61
2019-03-24T01:49:53.069Z,9.39
2019-03-24T01:52:25.037Z,9.41
2019-03-24T01:54:56.946Z,9.33
2019-03-24T01:57:29.003Z,9.33
2019-03-24T02:00:00.867Z,9.28
2019-03-24T02:02:32.872Z,9.31
2019-03-24T02:05:05.376Z,9.29
2019-03-24T02:07:37.443Z,9.34
2019-03-24T02:10:10.614Z,9.42
2019-03-24T02:12:42.528Z,9.50
2019-03-24T02:15:16.871Z,9.43
2019-03-24T02:17:48.931Z,9.19
2019-03-24T02:20:20.867Z,8.97
2019-03-24T02:22:52.947Z,8.85
2019-03-24T02:25:24.813Z,8.89
2019-03-24T02:27:59.682Z,8.86
2019-03-24T02:30:31.925Z,8.85
2019-03-24T02:33:05.829Z,8.76
2019-03-24T02:35:37.739Z,8.64
2019-03-24T02:38:09.604Z,8.69
2019-03-24T02:40:41.535Z,8.81
2019-03-24T02:43:13.455Z,8.81
2019-03-24T02:45:45.302Z,8.78
2019-03-24T02:48:17.587Z,8.72
2019-03-24T02:50:49.942Z,8.70
2019-03-24T02:53:22.220Z,8.66
2019-03-24T02:55:54.142Z,8.66
2019-03-24T02:58:26.038Z,8.70
2019-03-24T03:00:57.880Z,8.84
2019-03-24T03:03:30.356Z,8.98
2019-03-24T03:06:02.321Z,9.02
2019-03-24T03:08:34.337Z,9.05
2019-03-24T03:11:06.311Z,9.22
2019-03-24T03:13:38.228Z,9.34
2019-03-24T03:16:10.681Z,9.32
2019-03-24T03:18:42.688Z,9.33
2019-03-24T03:21:14.624Z,9.34
2019-03-24T03:23:46.488Z,9.27
2019-03-24T03:26:18.474Z,9.20
2019-03-24T03:28:50.412Z,9.13
2019-03-24T03:31:22.367Z,9.12
2019-03-24T03:33:54.504Z,9.14
2019-03-24T03:36:26.372Z,9.17
2019-03-24T03:38:59.246Z,9.09
2019-03-24T03:41:31.203Z,8.98
2019-03-24T03:44:05.111Z,8.92
2019-03-24T03:46:37.104Z,8.89
2019-03-24T03:49:08.958Z,8.86
2019-03-24T03:51:40.857Z,8.89
2019-03-24T03:54:12.761Z,8.90
2019-03-24T03:56:44.670Z,8.62
2019-03-24T03:59:16.595Z,8.50
2019-03-24T04:01:48.488Z,8.40
2019-03-24T04:04:20.330Z,8.42
2019-03-24T04:06:52.268Z,8.40
2019-03-24T04:09:24.214Z,8.41
2019-03-24T04:11:56.989Z,8.23
2019-03-24T04:14:28.946Z,8.30
2019-03-24T04:17:07.655Z,8.32
2019-03-24T04:19:35.516Z,8.39
2019-03-24T04:22:07.774Z,8.46
2019-03-24T04:24:39.733Z,8.53
2019-03-24T04:27:11.901Z,8.43
2019-03-24T04:29:45.144Z,8.45
2019-03-24T04:32:17.436Z,8.26
2019-03-24T04:34:49.324Z,8.17
2019-03-24T04:37:23.083Z,8.19
2019-03-24T04:39:56.182Z,8.13
2019-03-24T04:42:28.082Z,8.07
2019-03-24T04:45:00.912Z,8.07
2019-03-24T04:47:33.173Z,7.98
2019-03-24T04:50:06.152Z,7.90
2019-03-24T04:52:38.332Z,7.96
2019-03-24T04:55:10.492Z,8.02
2019-03-24T04:57:42.415Z,8.07
2019-03-24T05:00:15.733Z,8.10
2019-03-24T05:02:47.630Z,8.14
2019-03-24T05:05:19.489Z,8.17
2019-03-24T05:07:52.590Z,8.10
2019-03-24T05:10:28.722Z,7.99
2019-03-24T05:13:00.587Z,8.06
2019-03-24T05:15:32.655Z,8.05
2019-03-24T05:18:04.706Z,8.06
2019-03-24T05:20:36.603Z,8.03
2019-03-24T05:23:08.455Z,8.03
2019-03-24T05:25:40.403Z,8.07
2019-03-24T05:28:13.755Z,8.08
2019-03-24T05:30:45.831Z,8.04
2019-03-24T05:33:17.696Z,8.07
2019-03-24T05:35:49.598Z,8.06
2019-03-24T05:38:23.167Z,8.07
2019-03-24T05:40:55.869Z,8.06
2019-03-24T05:43:27.756Z,8.08
2019-03-24T05:45:59.710Z,8.14
2019-03-24T05:48:31.935Z,8.16
2019-03-24T05:51:03.852Z,8.18
2019-03-24T05:53:35.796Z,8.13
2019-03-24T05:56:07.695Z,7.93
2019-03-24T05:58:40.067Z,7.87
2019-03-24T06:01:12.185Z,7.87
2019-03-24T06:03:44.091Z,7.81
2019-03-24T06:06:17.227Z,7.85
2019-03-24T06:08:51.519Z,7.87
2019-03-24T06:11:24.925Z,7.93
2019-03-24T06:13:56.950Z,7.99
2019-03-24T06:16:28.952Z,8.04
2019-03-24T06:19:00.939Z,7.97
2019-03-24T06:21:32.892Z,7.84
2019-03-24T06:24:04.927Z,7.83
2019-03-24T06:26:36.854Z,7.82
2019-03-24T06:29:08.711Z,7.61
2019-03-24T06:31:40.602Z,7.55
2019-03-24T06:34:12.632Z,7.61
2019-03-24T06:36:44.550Z,7.67
2019-03-24T06:39:16.445Z,7.76
2019-03-24T06:41:48.322Z,7.80
2019-03-24T06:44:21.567Z,7.84
2019-03-24T06:46:53.480Z,7.90
2019-03-24T06:49:25.481Z,7.97
2019-03-24T06:51:57.379Z,8.02
2019-03-24T06:54:29.273Z,8.03
2019-03-24T06:57:01.643Z,8.15
2019-03-24T06:59:33.581Z,8.19
2019-03-24T07:02:05.464Z,8.22
2019-03-24T07:04:37.422Z,8.36
2019-03-24T07:07:09.525Z,8.43
2019-03-24T07:09:41.437Z,8.53
2019-03-24T07:12:13.336Z,8.73
2019-03-24T07:14:45.405Z,8.76
2019-03-24T07:17:18.308Z,8.92
2019-03-24T07:19:50.200Z,9.16
2019-03-24T07:22:22.126Z,9.21
2019-03-24T07:24:54.553Z,9.44
2019-03-24T07:27:29.244Z,9.63
2019-03-24T07:30:01.217Z,9.89
2019-03-24T07:32:34.713Z,9.94
2019-03-24T07:35:06.918Z,9.97
2019-03-24T07:37:38.972Z,10.10
2019-03-24T07:40:11.949Z,10.29
2019-03-24T07:42:43.867Z,10.48
2019-03-24T07:45:18.772Z,10.84
2019-03-24T07:47:50.717Z,10.72
2019-03-24T07:50:22.714Z,10.74
2019-03-24T07:52:54.661Z,10.85
2019-03-24T07:55:26.698Z,11.03
2019-03-24T07:57:59.056Z,11.52
2019-03-24T08:00:35.938Z,12.44
2019-03-24T08:03:07.913Z,14.44
2019-03-24T08:05:39.917Z,16.14
2019-03-24T08:08:11.815Z,16.93
2019-03-24T08:10:43.733Z,19.11
2019-03-24T08:13:16.900Z,20.00
2019-03-24T08:15:50.008Z,20.01
2019-03-24T08:18:29.583Z,20.43
2019-03-24T08:20:55.683Z,20.70
2019-03-24T08:23:27.636Z,21.24
2019-03-24T08:26:04.844Z,22.39
2019-03-24T08:28:36.755Z,24.66
2019-03-24T08:31:11.307Z,25.38
2019-03-24T08:33:43.219Z,26.94
2019-03-24T08:36:18.566Z,27.09
2019-03-24T08:38:50.801Z,27.53
2019-03-24T08:41:24.221Z,27.61
2019-03-24T08:43:56.233Z,27.01
2019-03-24T08:46:28.253Z,27.91
2019-03-24T08:49:00.245Z,29.13
2019-03-24T08:51:32.155Z,28.36
2019-03-24T08:54:04.103Z,29.86
2019-03-24T08:56:35.961Z,29.44
2019-03-24T08:59:07.969Z,28.56
2019-03-24T09:01:39.880Z,27.36
2019-03-24T09:04:11.783Z,29.45
2019-03-24T09:06:43.664Z,31.05
2019-03-24T09:09:15.645Z,31.91
2019-03-24T09:11:48.900Z,33.05
2019-03-24T09:14:21.038Z,32.93
2019-03-24T09:16:53.038Z,32.16
2019-03-24T09:19:24.971Z,32.41
2019-03-24T09:21:59.448Z,33.84
2019-03-24T09:24:31.649Z,33.42
2019-03-24T09:27:03.637Z,32.28
2019-03-24T09:29:37.025Z,34.01
2019-03-24T09:32:09.018Z,33.71
2019-03-24T09:34:43.175Z,34.48
2019-03-24T09:37:16.309Z,34.02
2019-03-24T09:39:48.296Z,35.55
2019-03-24T09:42:20.267Z,37.11
2019-03-24T09:44:52.383Z,38.58
2019-03-24T09:47:24.380Z,38.98
2019-03-24T09:49:56.367Z,37.76
2019-03-24T09:52:28.225Z,38.86
2019-03-24T09:55:00.340Z,38.07
2019-03-24T09:57:32.284Z,38.54
2019-03-24T10:00:04.601Z,37.99
2019-03-24T10:02:36.537Z,37.65
2019-03-24T10:05:08.747Z,38.04
2019-03-24T10:07:40.685Z,38.41
2019-03-24T10:10:13.025Z,38.38
2019-03-24T10:12:44.923Z,37.31
2019-03-24T10:15:20.071Z,37.82
2019-03-24T10:17:51.996Z,37.28
2019-03-24T10:20:25.027Z,36.50
2019-03-24T10:22:56.874Z,37.65
2019-03-24T10:25:31.895Z,37.78
2019-03-24T10:28:03.883Z,35.58
2019-03-24T10:30:35.800Z,36.99
2019-03-24T10:33:07.706Z,34.64
2019-03-24T10:35:39.857Z,34.82
2019-03-24T10:38:11.721Z,36.70
2019-03-24T10:40:43.617Z,37.51
2019-03-24T10:43:15.555Z,36.91
2019-03-24T10:45:47.909Z,37.19
2019-03-24T10:48:20.017Z,37.48
2019-03-24T10:50:51.891Z,37.40
2019-03-24T10:53:23.807Z,38.25
2019-03-24T10:55:55.753Z,37.69
2019-03-24T10:58:27.625Z,37.99
2019-03-24T11:00:59.477Z,36.39
2019-03-24T11:03:31.479Z,36.62
2019-03-24T11:06:04.138Z,34.58
2019-03-24T11:08:36.036Z,32.65
2019-03-24T11:11:07.880Z,33.41
2019-03-24T11:13:39.837Z,32.92
2019-03-24T11:16:11.749Z,32.40
2019-03-24T11:18:45.099Z,31.83
2019-03-24T11:21:16.986Z,32.37
2019-03-24T11:23:48.848Z,33.47
2019-03-24T11:26:20.909Z,30.69
2019-03-24T11:28:52.790Z,30.34
2019-03-24T11:31:24.811Z,30.33
2019-03-24T11:33:56.721Z,31.17
2019-03-24T11:36:28.571Z,32.84
2019-03-24T11:39:00.437Z,32.19
2019-03-24T11:41:33.981Z,31.45
2019-03-24T11:44:07.427Z,31.89
2019-03-24T11:46:39.286Z,30.54
2019-03-24T11:49:20.792Z,31.35
2019-03-24T11:51:52.825Z,30.17
2019-03-24T11:54:24.700Z,30.93
2019-03-24T11:56:56.604Z,30.81
2019-03-24T11:59:28.466Z,30.16
2019-03-24T12:02:00.770Z,29.75
2019-03-24T12:04:33.944Z,29.85
2019-03-24T12:07:06.856Z,29.42
2019-03-24T12:09:44.569Z,29.11
2019-03-24T12:12:22.042Z,28.36
2019-03-24T12:14:54.190Z,29.34
2019-03-24T12:17:26.108Z,29.34
2019-03-24T12:19:57.992Z,29.34
2019-03-24T12:22:29.864Z,28.08
2019-03-24T12:26:55.074Z,28.36
2019-03-24T12:29:27.878Z,28.49
2019-03-24T12:32:01.954Z,27.76
2019-03-24T12:34:34.478Z,26.59
2019-03-24T12:37:07.090Z,26.09
2019-03-24T12:39:39.658Z,25.81
2019-03-24T12:42:12.077Z,25.58
2019-03-24T12:44:44.463Z,25.24
2019-03-24T12:47:16.895Z,25.29
2019-03-24T12:49:49.299Z,25.39
2019-03-24T12:52:21.736Z,25.33
2019-03-24T12:54:54.131Z,25.35
2019-03-24T12:57:26.526Z,25.41
2019-03-24T13:00:01.331Z,25.45
2019-03-24T13:02:34.501Z,25.36
2019-03-24T13:05:09.281Z,25.46
2019-03-24T13:07:41.714Z,25.41
2019-03-24T13:10:14.375Z,25.57
2019-03-24T13:12:46.782Z,25.36
2019-03-24T13:15:19.180Z,25.63
2019-03-24T13:17:51.693Z,25.36
2019-03-24T13:20:37.851Z,25.39
2019-03-24T13:22:58.186Z,25.39
2019-03-24T13:25:30.647Z,25.26
2019-03-24T13:28:03.062Z,25.26
2019-03-24T13:30:35.936Z,25.48
2019-03-24T13:33:08.372Z,25.37
2019-03-24T13:35:40.860Z,25.53
2019-03-24T13:38:13.700Z,25.46
2019-03-24T13:40:46.104Z,25.48
2019-03-24T13:43:18.499Z,25.74
2019-03-24T13:45:50.926Z,25.59
2019-03-24T13:48:23.339Z,25.42
2019-03-24T13:50:55.779Z,25.48
2019-03-24T13:53:28.324Z,25.59
2019-03-24T13:56:00.765Z,25.50
2019-03-24T13:58:33.992Z,25.49
2019-03-24T14:01:07.704Z,25.38
2019-03-24T14:03:44.181Z,25.42
2019-03-24T14:06:16.726Z,25.25
2019-03-24T14:08:49.576Z,25.19
2019-03-24T14:11:24.159Z,25.30
2019-03-24T14:13:56.109Z,25.50
2019-03-24T14:16:28.542Z,25.55
2019-03-24T14:19:01.051Z,25.50
2019-03-24T14:21:34.066Z,25.29
2019-03-24T14:24:06.730Z,25.29
2019-03-24T14:26:39.137Z,25.26
2019-03-24T14:29:11.536Z,25.15
2019-03-24T14:31:43.947Z,25.19
2019-03-24T14:34:16.379Z,25.20
2019-03-24T14:36:48.777Z,25.28
2019-03-24T14:39:21.302Z,25.32
2019-03-24T14:41:53.704Z,25.48
2019-03-24T14:44:26.223Z,25.34
2019-03-24T14:46:58.671Z,25.44
2019-03-24T14:49:31.267Z,25.43
2019-03-24T14:52:03.791Z,25.38
2019-03-24T14:54:36.204Z,25.26
2019-03-24T14:57:08.604Z,25.28
2019-03-24T14:59:41.009Z,25.15
2019-03-24T15:02:13.511Z,25.19
2019-03-24T15:04:46.030Z,25.17
2019-03-24T15:07:18.515Z,25.18
2019-03-24T15:09:50.903Z,25.21
2019-03-24T15:12:23.334Z,25.20
2019-03-24T15:14:55.719Z,25.36
2019-03-24T15:17:28.121Z,25.20
2019-03-24T15:20:00.658Z,25.30
2019-03-24T15:22:33.092Z,25.30
2019-03-24T15:25:05.872Z,25.17
2019-03-24T15:27:38.326Z,25.30
2019-03-24T15:30:12.127Z,25.34
2019-03-24T15:32:44.530Z,25.09
2019-03-24T15:35:16.983Z,25.28
2019-03-24T15:37:49.379Z,25.25
2019-03-24T15:40:22.139Z,25.25
2019-03-24T15:42:54.833Z,25.28
2019-03-24T15:45:27.255Z,25.16
2019-03-24T15:48:00.784Z,25.14
2019-03-24T15:50:34.316Z,25.11
2019-03-24T15:53:06.753Z,25.19
2019-03-24T15:55:39.139Z,25.12
2019-03-24T15:58:12.538Z,25.17
2019-03-24T16:00:50.141Z,25.18
2019-03-24T16:03:23.829Z,25.20
2019-03-24T16:05:56.616Z,25.08
2019-03-24T16:08:29.092Z,25.09
2019-03-24T16:11:01.480Z,25.05
2019-03-24T16:13:34.175Z,25.02
2019-03-24T16:16:06.740Z,25.09
2019-03-24T16:18:39.601Z,24.98
2019-03-24T16:21:12.076Z,25.09
2019-03-24T16:23:45.790Z,24.95
2019-03-24T16:26:18.235Z,24.94
2019-03-24T16:28:50.609Z,24.91
2019-03-24T16:31:23.089Z,24.91
2019-03-24T16:33:55.503Z,24.91
2019-03-24T16:36:27.964Z,24.86
2019-03-24T16:39:03.734Z,24.86
2019-03-24T16:41:36.094Z,24.79
2019-03-24T16:44:08.538Z,24.79
2019-03-24T16:46:41.012Z,24.78
2019-03-24T16:49:13.463Z,24.68
2019-03-24T16:51:46.461Z,24.68
2019-03-24T16:54:18.963Z,24.65
2019-03-24T16:56:51.373Z,24.64
2019-03-24T16:59:23.951Z,24.77
2019-03-24T17:01:59.028Z,24.72
2019-03-24T17:04:31.614Z,24.71
2019-03-24T17:07:04.240Z,24.75
2019-03-24T17:09:36.729Z,24.64
2019-03-24T17:12:09.343Z,24.61
2019-03-24T17:14:41.764Z,24.55
2019-03-24T17:17:15.526Z,24.53
2019-03-24T17:19:48.202Z,24.54
2019-03-24T17:22:20.804Z,24.52
2019-03-24T17:24:53.295Z,24.56
2019-03-24T17:27:26.382Z,24.55
2019-03-24T17:29:58.933Z,24.34
2019-03-24T17:32:31.482Z,24.34
2019-03-24T17:35:05.032Z,24.30
2019-03-24T17:37:37.842Z,24.31
2019-03-24T17:40:12.667Z,24.29
2019-03-24T17:42:46.069Z,24.23
2019-03-24T17:45:19.088Z,24.16
2019-03-24T17:47:52.170Z,24.14
2019-03-24T17:50:24.733Z,24.07
2019-03-24T17:52:57.256Z,24.02
2019-03-24T17:55:31.039Z,23.89
2019-03-24T17:58:06.043Z,23.73
2019-03-24T18:00:42.690Z,23.68
2019-03-24T18:03:15.266Z,23.60
2019-03-24T18:05:47.779Z,23.52
2019-03-24T18:08:22.232Z,23.45
2019-03-24T18:10:54.352Z,23.35
2019-03-24T18:13:26.845Z,23.29
2019-03-24T18:15:59.317Z,23.29
2019-03-24T18:18:33.885Z,23.16
2019-03-24T18:21:06.473Z,23.15
2019-03-24T18:23:38.998Z,23.08
2019-03-24T18:26:11.681Z,22.95
2019-03-24T18:28:44.207Z,22.76
2019-03-24T18:31:17.674Z,22.64
2019-03-24T18:33:50.780Z,22.45
2019-03-24T18:36:23.255Z,22.26
2019-03-24T18:38:55.840Z,22.06
2019-03-24T18:41:28.541Z,21.81
2019-03-24T18:44:02.272Z,21.66
2019-03-24T18:46:34.945Z,21.53
2019-03-24T18:49:10.846Z,21.31
2019-03-24T18:51:45.254Z,20.78
2019-03-24T18:54:17.969Z,20.95
2019-03-24T18:56:52.128Z,20.75
2019-03-24T18:59:25.226Z,20.60
2019-03-24T19:02:00.507Z,20.43
2019-03-24T19:04:33.430Z,20.30
2019-03-24T19:07:07.311Z,20.18
2019-03-24T19:09:42.652Z,20.09
2019-03-24T19:12:16.051Z,19.91
2019-03-24T19:14:48.780Z,19.74
2019-03-24T19:17:24.100Z,19.54
2019-03-24T19:19:59.559Z,19.37
2019-03-24T19:22:33.859Z,19.21
2019-03-24T19:25:05.849Z,19.07
2019-03-24T19:27:39.071Z,18.85
2019-03-24T19:30:13.068Z,18.68
2019-03-24T19:32:45.848Z,18.58
2019-03-24T19:35:19.809Z,18.47
2019-03-24T19:37:54.267Z,18.49
2019-03-24T19:40:28.716Z,18.43
2019-03-24T19:43:02.160Z,18.32
2019-03-24T19:45:35.024Z,18.20
2019-03-24T19:48:07.758Z,18.12
2019-03-24T19:50:40.426Z,18.00
2019-03-24T19:53:13.372Z,17.91
2019-03-24T19:55:46.355Z,17.82
2019-03-24T19:58:18.979Z,17.76
2019-03-24T20:00:51.671Z,17.56
2019-03-24T20:03:24.396Z,17.46
2019-03-24T20:05:57.438Z,17.37
2019-03-24T20:10:12.775Z,17.16
2019-03-24T20:12:45.783Z,17.03
2019-03-24T20:15:19.370Z,16.97
2019-03-24T20:17:52.203Z,16.92
2019-03-24T20:20:26.281Z,16.84
2019-03-24T20:22:59.128Z,16.85
2019-03-24T20:25:33.465Z,16.82
2019-03-24T20:28:07.358Z,16.73
2019-03-24T20:30:43.191Z,16.64
2019-03-24T20:33:16.133Z,16.62
2019-03-24T20:35:51.460Z,16.42
2019-03-24T20:38:24.357Z,16.29
2019-03-24T20:40:57.395Z,16.19
2019-03-24T20:43:30.483Z,16.05
2019-03-24T20:46:04.286Z,16.08
2019-03-24T20:48:37.888Z,16.06
2019-03-24T20:51:10.620Z,16.05
2019-03-24T20:53:43.507Z,16.01
2019-03-24T20:56:16.376Z,16.04
2019-03-24T20:58:49.200Z,15.93
2019-03-24T21:01:22.115Z,15.82
2019-03-24T21:03:55.035Z,15.80
2019-03-24T21:06:27.973Z,15.54
2019-03-24T21:09:02.919Z,15.37
2019-03-24T21:11:36.731Z,15.32
2019-03-24T21:14:10.825Z,15.25
2019-03-24T21:16:44.861Z,15.10
2019-03-24T21:19:18.760Z,14.97
2019-03-24T21:21:52.099Z,14.88
2019-03-24T21:24:25.052Z,14.75
2019-03-24T21:26:57.825Z,14.56
2019-03-24T21:29:31.553Z,14.46
2019-03-24T21:32:04.369Z,14.43
2019-03-24T21:34:38.524Z,14.36
2019-03-24T21:37:11.297Z,14.35
2019-03-24T21:39:44.267Z,14.27
2019-03-24T21:42:16.957Z,14.24
2019-03-24T21:44:51.449Z,14.17
2019-03-24T21:47:24.582Z,14.14
2019-03-24T21:50:00.104Z,14.17
2019-03-24T21:52:35.375Z,14.18
2019-03-24T21:55:08.843Z,14.18
2019-03-24T21:57:41.660Z,14.13
2019-03-24T22:00:14.764Z,14.19
2019-03-24T22:02:47.965Z,14.18
2019-03-24T22:05:24.318Z,14.19
2019-03-24T22:08:00.197Z,14.22
2019-03-24T22:10:36.136Z,14.16
2019-03-24T22:13:13.654Z,14.03
2019-03-24T22:15:46.565Z,14.05
2019-03-24T22:18:20.735Z,14.05
2019-03-24T22:20:53.577Z,13.93
2019-03-24T22:23:26.250Z,13.83
2019-03-24T22:25:58.873Z,13.66
2019-03-24T22:28:31.898Z,13.60
2019-03-24T22:31:04.602Z,13.44
2019-03-24T22:33:41.691Z,13.30
2019-03-24T22:36:16.460Z,13.24
2019-03-24T22:38:49.101Z,13.19
2019-03-24T22:41:21.777Z,13.21
2019-03-24T22:43:54.561Z,13.06
2019-03-24T22:46:27.234Z,12.94
2019-03-24T22:48:59.851Z,12.86
2019-03-24T22:51:34.357Z,12.96
2019-03-24T22:54:07.012Z,12.84
2019-03-24T22:56:39.971Z,12.76
2019-03-24T22:59:14.284Z,12.83
2019-03-24T23:01:47.529Z,12.79
2019-03-24T23:04:20.199Z,12.75
2019-03-24T23:06:52.815Z,12.74
2019-03-24T23:09:25.592Z,12.68
2019-03-24T23:11:58.199Z,12.61
2019-03-24T23:14:32.441Z,12.60
2019-03-24T23:17:06.966Z,12.55
2019-03-24T23:19:39.628Z,12.65
2019-03-24T23:22:12.321Z,12.63
2019-03-24T23:24:44.936Z,12.63
2019-03-24T23:27:17.584Z,12.58
2019-03-24T23:29:51.842Z,12.54
2019-03-24T23:32:24.520Z,12.50
2019-03-24T23:34:57.511Z,12.37
2019-03-24T23:37:30.739Z,12.34
2019-03-24T23:40:03.868Z,12.33
2019-03-24T23:42:36.587Z,12.33
2019-03-24T23:45:09.915Z,12.24
2019-03-24T23:47:42.598Z,12.09
2019-03-24T23:50:15.574Z,11.96
2019-03-24T23:52:48.285Z,12.08
2019-03-24T23:55:20.954Z,12.07
2019-03-24T23:57:55.455Z,12.02
